sensor_id;sensor_type;location;lat;lon;timestamp;pressure;altitude;pressure_sealevel;temperature;humidity
40502;BME280;29631;49.168;9.848;2023-02-04T00:01:04;97751.38;;;12.44;100.00
40502;BME280;29631;49.168;9.848;2023-02-04T00:03:30;97758.91;;;12.47;100.00
40502;BME280;29631;49.168;9.848;2023-02-04T00:05:55;97739.78;;;12.45;100.00
40502;BME280;29631;49.168;9.848;2023-02-04T00:08:21;97736.50;;;12.43;100.00
40502;BME280;29631;49.168;9.848;2023-02-04T00:10:47;97735.88;;;12.41;99.49
40502;BME280;29631;49.168;9.848;2023-02-04T00:13:12;97741.41;;;12.46;99.40
40502;BME280;29631;49.168;9.848;2023-02-04T00:15:38;97755.66;;;12.45;99.24
40502;BME280;29631;49.168;9.848;2023-02-04T00:18:04;97734.03;;;12.21;98.80
40502;BME280;29631;49.168;9.848;2023-02-04T00:20:32;97746.56;;;12.33;99.16
40502;BME280;29631;49.168;9.848;2023-02-04T00:22:58;97749.84;;;12.35;99.34
40502;BME280;29631;49.168;9.848;2023-02-04T00:25:24;97739.03;;;12.30;98.82
40502;BME280;29631;49.168;9.848;2023-02-04T00:27:49;97719.56;;;12.17;98.49
40502;BME280;29631;49.168;9.848;2023-02-04T00:30:16;97733.09;;;12.28;98.71
40502;BME280;29631;49.168;9.848;2023-02-04T00:32:41;97722.28;;;12.23;98.04
40502;BME280;29631;49.168;9.848;2023-02-04T00:35:08;97726.44;;;12.32;98.50
40502;BME280;29631;49.168;9.848;2023-02-04T00:37:34;97719.88;;;12.28;97.43
40502;BME280;29631;49.168;9.848;2023-02-04T00:39:59;97724.56;;;12.26;97.64
40502;BME280;29631;49.168;9.848;2023-02-04T00:42:25;97724.34;;;12.28;97.57
40502;BME280;29631;49.168;9.848;2023-02-04T00:44:51;97724.28;;;12.21;97.53
40502;BME280;29631;49.168;9.848;2023-02-04T00:47:17;97738.13;;;12.23;97.38
40502;BME280;29631;49.168;9.848;2023-02-04T00:49:43;97736.25;;;12.17;97.02
40502;BME280;29631;49.168;9.848;2023-02-04T00:52:08;97740.13;;;12.21;96.88
40502;BME280;29631;49.168;9.848;2023-02-04T00:54:34;97737.69;;;12.20;96.71
40502;BME280;29631;49.168;9.848;2023-02-04T00:57:00;97740.44;;;12.12;96.40
40502;BME280;29631;49.168;9.848;2023-02-04T00:59:25;97744.53;;;12.14;97.01
40502;BME280;29631;49.168;9.848;2023-02-04T01:01:51;97724.53;;;12.05;97.19
40502;BME280;29631;49.168;9.848;2023-02-04T01:04:17;97728.94;;;11.98;96.91
40502;BME280;29631;49.168;9.848;2023-02-04T01:06:43;97773.56;;;12.08;96.28
40502;BME280;29631;49.168;9.848;2023-02-04T01:09:08;97771.22;;;11.98;96.78
40502;BME280;29631;49.168;9.848;2023-02-04T01:11:35;97775.66;;;11.98;95.43
40502;BME280;29631;49.168;9.848;2023-02-04T01:14:01;97761.63;;;11.97;96.22
40502;BME280;29631;49.168;9.848;2023-02-04T01:16:27;97772.84;;;11.99;95.71
40502;BME280;29631;49.168;9.848;2023-02-04T01:18:53;97769.75;;;11.96;95.75
40502;BME280;29631;49.168;9.848;2023-02-04T01:21:23;97766.97;;;11.83;95.84
40502;BME280;29631;49.168;9.848;2023-02-04T01:23:49;97781.13;;;11.96;94.66
40502;BME280;29631;49.168;9.848;2023-02-04T01:26:17;97781.63;;;11.85;94.96
40502;BME280;29631;49.168;9.848;2023-02-04T01:28:43;97785.34;;;11.91;94.77
40502;BME280;29631;49.168;9.848;2023-02-04T01:31:09;97785.91;;;11.86;95.13
40502;BME280;29631;49.168;9.848;2023-02-04T01:33:34;97797.09;;;11.88;94.29
40502;BME280;29631;49.168;9.848;2023-02-04T01:36:00;97799.72;;;11.88;94.81
40502;BME280;29631;49.168;9.848;2023-02-04T01:38:26;97785.19;;;11.78;94.08
40502;BME280;29631;49.168;9.848;2023-02-04T01:40:52;97809.69;;;11.86;94.77
40502;BME280;29631;49.168;9.848;2023-02-04T01:43:18;97799.84;;;11.80;93.77
40502;BME280;29631;49.168;9.848;2023-02-04T01:45:47;97794.56;;;11.80;94.58
40502;BME280;29631;49.168;9.848;2023-02-04T01:48:14;97801.66;;;11.80;94.37
40502;BME280;29631;49.168;9.848;2023-02-04T01:50:50;97805.50;;;11.77;93.24
40502;BME280;29631;49.168;9.848;2023-02-04T01:53:20;97819.97;;;11.81;93.81
40502;BME280;29631;49.168;9.848;2023-02-04T01:55:48;97804.13;;;11.67;93.89
40502;BME280;29631;49.168;9.848;2023-02-04T01:58:14;97809.06;;;11.70;93.58
40502;BME280;29631;49.168;9.848;2023-02-04T02:00:40;97823.19;;;11.77;93.39
40502;BME280;29631;49.168;9.848;2023-02-04T02:03:07;97828.63;;;11.75;92.96
40502;BME280;29631;49.168;9.848;2023-02-04T02:05:50;97796.22;;;11.53;93.44
40502;BME280;29631;49.168;9.848;2023-02-04T02:08:17;97817.34;;;11.67;92.84
40502;BME280;29631;49.168;9.848;2023-02-04T02:10:46;97818.53;;;11.64;93.01
40502;BME280;29631;49.168;9.848;2023-02-04T02:13:17;97825.19;;;11.60;93.46
40502;BME280;29631;49.168;9.848;2023-02-04T02:15:43;97825.19;;;11.60;92.93
40502;BME280;29631;49.168;9.848;2023-02-04T02:18:10;97850.50;;;11.69;92.65
40502;BME280;29631;49.168;9.848;2023-02-04T02:20:36;97840.66;;;11.63;92.85
40502;BME280;29631;49.168;9.848;2023-02-04T02:23:46;97836.09;;;11.57;92.86
40502;BME280;29631;49.168;9.848;2023-02-04T02:26:15;97831.19;;;11.55;93.24
40502;BME280;29631;49.168;9.848;2023-02-04T02:28:42;97830.88;;;11.50;93.36
40502;BME280;29631;49.168;9.848;2023-02-04T02:31:08;97850.31;;;11.57;92.61
40502;BME280;29631;49.168;9.848;2023-02-04T02:33:35;97855.31;;;11.52;92.25
40502;BME280;29631;49.168;9.848;2023-02-04T02:36:01;97854.81;;;11.48;91.99
40502;BME280;29631;49.168;9.848;2023-02-04T02:38:27;97857.78;;;11.53;92.18
40502;BME280;29631;49.168;9.848;2023-02-04T02:40:52;97854.63;;;11.50;92.28
40502;BME280;29631;49.168;9.848;2023-02-04T02:43:24;97868.75;;;11.42;92.49
40502;BME280;29631;49.168;9.848;2023-02-04T02:45:52;97851.44;;;11.40;92.50
40502;BME280;29631;49.168;9.848;2023-02-04T02:48:19;97846.25;;;11.32;92.03
40502;BME280;29631;49.168;9.848;2023-02-04T02:50:45;97840.50;;;11.28;92.57
40502;BME280;29631;49.168;9.848;2023-02-04T02:53:14;97851.34;;;11.33;92.28
40502;BME280;29631;49.168;9.848;2023-02-04T02:55:42;97854.22;;;11.24;92.04
40502;BME280;29631;49.168;9.848;2023-02-04T02:58:28;97852.63;;;11.23;91.58
40502;BME280;29631;49.168;9.848;2023-02-04T03:00:58;97853.09;;;11.26;91.68
40502;BME280;29631;49.168;9.848;2023-02-04T03:03:27;97850.59;;;11.25;92.43
40502;BME280;29631;49.168;9.848;2023-02-04T03:06:00;97868.72;;;11.28;92.00
40502;BME280;29631;49.168;9.848;2023-02-04T03:08:27;97888.13;;;11.35;90.87
40502;BME280;29631;49.168;9.848;2023-02-04T03:10:53;97886.84;;;11.31;92.05
40502;BME280;29631;49.168;9.848;2023-02-04T03:13:19;97897.06;;;11.34;91.16
40502;BME280;29631;49.168;9.848;2023-02-04T03:15:46;97880.28;;;11.27;90.94
40502;BME280;29631;49.168;9.848;2023-02-04T03:18:15;97897.97;;;11.26;90.90
40502;BME280;29631;49.168;9.848;2023-02-04T03:20:43;97923.78;;;11.31;90.99
40502;BME280;29631;49.168;9.848;2023-02-04T03:23:09;97916.72;;;11.31;91.13
40502;BME280;29631;49.168;9.848;2023-02-04T03:25:35;97927.53;;;11.22;90.91
40502;BME280;29631;49.168;9.848;2023-02-04T03:28:01;97938.59;;;11.40;91.54
40502;BME280;29631;49.168;9.848;2023-02-04T03:30:26;97907.41;;;11.21;91.28
40502;BME280;29631;49.168;9.848;2023-02-04T03:32:53;97926.28;;;11.32;91.28
40502;BME280;29631;49.168;9.848;2023-02-04T03:35:19;97944.66;;;11.40;90.93
40502;BME280;29631;49.168;9.848;2023-02-04T03:37:45;97930.38;;;11.35;91.53
40502;BME280;29631;49.168;9.848;2023-02-04T03:40:11;97933.63;;;11.37;90.93
40502;BME280;29631;49.168;9.848;2023-02-04T03:42:37;97947.69;;;11.37;91.74
40502;BME280;29631;49.168;9.848;2023-02-04T03:45:03;97940.09;;;11.34;91.11
40502;BME280;29631;49.168;9.848;2023-02-04T03:47:29;97961.34;;;11.41;91.24
40502;BME280;29631;49.168;9.848;2023-02-04T03:49:55;97954.13;;;11.35;90.91
40502;BME280;29631;49.168;9.848;2023-02-04T03:52:20;97948.03;;;11.34;91.34
40502;BME280;29631;49.168;9.848;2023-02-04T03:54:46;97949.25;;;11.24;91.56
40502;BME280;29631;49.168;9.848;2023-02-04T03:57:12;97946.00;;;11.22;90.67
40502;BME280;29631;49.168;9.848;2023-02-04T03:59:38;97958.81;;;11.25;91.21
40502;BME280;29631;49.168;9.848;2023-02-04T04:02:03;97945.41;;;11.12;91.25
40502;BME280;29631;49.168;9.848;2023-02-04T04:04:29;97961.19;;;11.20;90.38
40502;BME280;29631;49.168;9.848;2023-02-04T04:06:55;97957.72;;;11.19;90.61
40502;BME280;29631;49.168;9.848;2023-02-04T04:09:21;97974.94;;;11.30;90.76
40502;BME280;29631;49.168;9.848;2023-02-04T04:11:47;97985.88;;;11.27;90.59
40502;BME280;29631;49.168;9.848;2023-02-04T04:14:12;97977.31;;;11.25;90.77
40502;BME280;29631;49.168;9.848;2023-02-04T04:16:38;97985.50;;;11.30;91.05
40502;BME280;29631;49.168;9.848;2023-02-04T04:19:04;97987.16;;;11.31;90.94
40502;BME280;29631;49.168;9.848;2023-02-04T04:21:29;97989.97;;;11.29;90.46
40502;BME280;29631;49.168;9.848;2023-02-04T04:23:55;97984.59;;;11.23;90.75
40502;BME280;29631;49.168;9.848;2023-02-04T04:26:21;97983.28;;;11.19;90.91
40502;BME280;29631;49.168;9.848;2023-02-04T04:28:47;97999.06;;;11.27;90.53
40502;BME280;29631;49.168;9.848;2023-02-04T04:31:12;98003.69;;;11.25;91.49
40502;BME280;29631;49.168;9.848;2023-02-04T04:33:38;98001.09;;;11.17;89.86
40502;BME280;29631;49.168;9.848;2023-02-04T04:36:05;97973.19;;;11.00;90.26
40502;BME280;29631;49.168;9.848;2023-02-04T04:38:31;97991.78;;;11.06;90.07
40502;BME280;29631;49.168;9.848;2023-02-04T04:40:56;97993.59;;;11.06;90.36
40502;BME280;29631;49.168;9.848;2023-02-04T04:43:22;97987.38;;;10.99;89.96
40502;BME280;29631;49.168;9.848;2023-02-04T04:45:48;98000.56;;;10.99;90.12
40502;BME280;29631;49.168;9.848;2023-02-04T04:48:14;98005.69;;;11.00;90.23
40502;BME280;29631;49.168;9.848;2023-02-04T04:50:39;98018.34;;;11.05;89.97
40502;BME280;29631;49.168;9.848;2023-02-04T04:53:06;98027.56;;;11.09;90.80
40502;BME280;29631;49.168;9.848;2023-02-04T04:55:36;98012.72;;;11.08;90.02
40502;BME280;29631;49.168;9.848;2023-02-04T04:58:04;98010.38;;;11.13;90.56
40502;BME280;29631;49.168;9.848;2023-02-04T05:00:30;98005.47;;;11.10;90.71
40502;BME280;29631;49.168;9.848;2023-02-04T05:02:56;98013.84;;;11.13;90.77
40502;BME280;29631;49.168;9.848;2023-02-04T05:05:21;98012.03;;;11.14;90.23
40502;BME280;29631;49.168;9.848;2023-02-04T05:07:47;98010.28;;;11.06;90.01
40502;BME280;29631;49.168;9.848;2023-02-04T05:10:13;97990.19;;;10.97;89.68
40502;BME280;29631;49.168;9.848;2023-02-04T05:12:39;98014.53;;;11.07;90.93
40502;BME280;29631;49.168;9.848;2023-02-04T05:15:06;98011.31;;;10.97;89.70
40502;BME280;29631;49.168;9.848;2023-02-04T05:17:32;98018.56;;;10.95;89.78
40502;BME280;29631;49.168;9.848;2023-02-04T05:19:58;98026.31;;;10.97;90.41
40502;BME280;29631;49.168;9.848;2023-02-04T05:22:24;97992.09;;;10.81;90.11
40502;BME280;29631;49.168;9.848;2023-02-04T05:24:49;98014.81;;;10.90;89.33
40502;BME280;29631;49.168;9.848;2023-02-04T05:27:15;98023.34;;;10.92;89.29
40502;BME280;29631;49.168;9.848;2023-02-04T05:29:41;98010.72;;;10.87;90.01
40502;BME280;29631;49.168;9.848;2023-02-04T05:32:06;97995.56;;;10.82;89.28
40502;BME280;29631;49.168;9.848;2023-02-04T05:34:32;98009.06;;;10.86;89.85
40502;BME280;29631;49.168;9.848;2023-02-04T05:36:58;98007.91;;;10.89;89.68
40502;BME280;29631;49.168;9.848;2023-02-04T05:39:23;98013.00;;;10.90;90.00
40502;BME280;29631;49.168;9.848;2023-02-04T05:41:49;98015.16;;;10.87;89.05
40502;BME280;29631;49.168;9.848;2023-02-04T05:44:15;98008.91;;;10.80;89.58
40502;BME280;29631;49.168;9.848;2023-02-04T05:46:40;98020.13;;;10.82;88.96
40502;BME280;29631;49.168;9.848;2023-02-04T05:49:06;98030.97;;;10.87;88.50
40502;BME280;29631;49.168;9.848;2023-02-04T05:51:32;98025.91;;;10.78;89.30
40502;BME280;29631;49.168;9.848;2023-02-04T05:53:58;98038.59;;;10.82;89.37
40502;BME280;29631;49.168;9.848;2023-02-04T05:56:24;98046.69;;;10.81;88.92
40502;BME280;29631;49.168;9.848;2023-02-04T05:58:50;98067.44;;;10.83;89.14
40502;BME280;29631;49.168;9.848;2023-02-04T06:01:15;98060.69;;;10.81;88.47
40502;BME280;29631;49.168;9.848;2023-02-04T06:03:41;98054.41;;;10.82;88.62
40502;BME280;29631;49.168;9.848;2023-02-04T06:06:07;98062.50;;;10.81;88.60
40502;BME280;29631;49.168;9.848;2023-02-04T06:08:33;98091.94;;;10.92;89.10
40502;BME280;29631;49.168;9.848;2023-02-04T06:10:59;98089.00;;;10.87;88.58
40502;BME280;29631;49.168;9.848;2023-02-04T06:13:24;98099.56;;;10.87;89.00
40502;BME280;29631;49.168;9.848;2023-02-04T06:15:50;98095.63;;;10.91;88.10
40502;BME280;29631;49.168;9.848;2023-02-04T06:18:16;98085.72;;;10.85;88.18
40502;BME280;29631;49.168;9.848;2023-02-04T06:20:41;98089.00;;;10.87;89.18
40502;BME280;29631;49.168;9.848;2023-02-04T06:23:07;98081.28;;;10.85;89.30
40502;BME280;29631;49.168;9.848;2023-02-04T06:25:33;98083.91;;;10.85;89.08
40502;BME280;29631;49.168;9.848;2023-02-04T06:27:58;98081.28;;;10.85;89.02
40502;BME280;29631;49.168;9.848;2023-02-04T06:30:24;98085.56;;;10.86;89.17
40502;BME280;29631;49.168;9.848;2023-02-04T06:32:50;98103.97;;;10.94;89.37
40502;BME280;29631;49.168;9.848;2023-02-04T06:35:16;98097.59;;;10.89;88.91
40502;BME280;29631;49.168;9.848;2023-02-04T06:37:42;98094.28;;;10.87;88.52
40502;BME280;29631;49.168;9.848;2023-02-04T06:40:09;98094.28;;;10.87;89.46
40502;BME280;29631;49.168;9.848;2023-02-04T06:42:35;98109.78;;;10.90;88.68
40502;BME280;29631;49.168;9.848;2023-02-04T06:45:01;98111.09;;;10.86;88.36
40502;BME280;29631;49.168;9.848;2023-02-04T06:47:27;98104.50;;;10.90;88.61
40502;BME280;29631;49.168;9.848;2023-02-04T06:49:52;98077.41;;;10.66;89.23
40502;BME280;29631;49.168;9.848;2023-02-04T06:52:18;98087.56;;;10.77;88.05
40502;BME280;29631;49.168;9.848;2023-02-04T06:54:44;98110.59;;;10.90;88.83
40502;BME280;29631;49.168;9.848;2023-02-04T06:57:09;98106.66;;;10.86;88.63
40502;BME280;29631;49.168;9.848;2023-02-04T06:59:39;98113.75;;;10.86;88.11
40502;BME280;29631;49.168;9.848;2023-02-04T07:02:06;98118.69;;;10.89;88.33
40502;BME280;29631;49.168;9.848;2023-02-04T07:04:33;98115.09;;;10.74;88.54
40502;BME280;29631;49.168;9.848;2023-02-04T07:06:59;98129.25;;;10.89;87.96
40502;BME280;29631;49.168;9.848;2023-02-04T07:09:25;98122.00;;;10.83;87.99
40502;BME280;29631;49.168;9.848;2023-02-04T07:11:51;98130.56;;;10.85;88.35
40502;BME280;29631;49.168;9.848;2023-02-04T07:14:18;98126.63;;;10.81;88.49
40502;BME280;29631;49.168;9.848;2023-02-04T07:16:44;98141.09;;;10.85;88.93
40502;BME280;29631;49.168;9.848;2023-02-04T07:19:10;98145.06;;;10.89;88.82
40502;BME280;29631;49.168;9.848;2023-02-04T07:21:36;98145.41;;;10.86;87.82
40502;BME280;29631;49.168;9.848;2023-02-04T07:24:02;98143.41;;;10.88;88.36
40502;BME280;29631;49.168;9.848;2023-02-04T07:26:28;98140.00;;;10.80;88.61
40502;BME280;29631;49.168;9.848;2023-02-04T07:28:53;98154.31;;;10.85;88.69
40502;BME280;29631;49.168;9.848;2023-02-04T07:31:19;98129.97;;;10.67;87.83
40502;BME280;29631;49.168;9.848;2023-02-04T07:33:45;98145.44;;;10.78;87.69
40502;BME280;29631;49.168;9.848;2023-02-04T07:36:10;98164.22;;;10.91;88.67
40502;BME280;29631;49.168;9.848;2023-02-04T07:38:36;98169.47;;;10.91;88.16
40502;BME280;29631;49.168;9.848;2023-02-04T07:41:02;98163.56;;;10.81;87.71
40502;BME280;29631;49.168;9.848;2023-02-04T07:43:28;98184.28;;;11.00;89.13
40502;BME280;29631;49.168;9.848;2023-02-04T07:45:54;98186.59;;;10.95;88.75
40502;BME280;29631;49.168;9.848;2023-02-04T07:48:19;98180.34;;;10.88;89.00
40502;BME280;29631;49.168;9.848;2023-02-04T07:50:45;98203.72;;;10.99;88.34
40502;BME280;29631;49.168;9.848;2023-02-04T07:53:11;98190.41;;;10.92;88.11
40502;BME280;29631;49.168;9.848;2023-02-04T07:55:37;98193.84;;;10.93;88.27
40502;BME280;29631;49.168;9.848;2023-02-04T07:58:03;98197.47;;;10.92;88.91
40502;BME280;29631;49.168;9.848;2023-02-04T08:00:29;98196.19;;;10.88;88.38
40502;BME280;29631;49.168;9.848;2023-02-04T08:02:54;98215.63;;;11.03;88.55
40502;BME280;29631;49.168;9.848;2023-02-04T08:05:20;98161.41;;;10.77;88.45
40502;BME280;29631;49.168;9.848;2023-02-04T08:07:46;98228.44;;;11.14;88.23
40502;BME280;29631;49.168;9.848;2023-02-04T08:10:12;98210.97;;;11.05;89.30
40502;BME280;29631;49.168;9.848;2023-02-04T08:12:38;98217.41;;;11.10;88.63
40502;BME280;29631;49.168;9.848;2023-02-04T08:15:04;98219.53;;;11.15;88.15
40502;BME280;29631;49.168;9.848;2023-02-04T08:17:32;98229.72;;;11.18;89.04
40502;BME280;29631;49.168;9.848;2023-02-04T08:19:57;98209.69;;;11.01;88.27
40502;BME280;29631;49.168;9.848;2023-02-04T08:22:23;98232.44;;;11.10;88.65
40502;BME280;29631;49.168;9.848;2023-02-04T08:24:49;98252.50;;;11.19;89.02
40502;BME280;29631;49.168;9.848;2023-02-04T08:27:15;98247.59;;;11.16;88.54
40502;BME280;29631;49.168;9.848;2023-02-04T08:29:40;98253.66;;;11.16;88.84
40502;BME280;29631;49.168;9.848;2023-02-04T08:32:06;98261.75;;;11.15;88.20
40502;BME280;29631;49.168;9.848;2023-02-04T08:34:35;98240.00;;;11.05;88.21
40502;BME280;29631;49.168;9.848;2023-02-04T08:37:00;98270.00;;;11.20;89.09
40502;BME280;29631;49.168;9.848;2023-02-04T08:39:26;98234.09;;;11.03;88.99
40502;BME280;29631;49.168;9.848;2023-02-04T08:41:52;98227.03;;;10.87;88.45
40502;BME280;29631;49.168;9.848;2023-02-04T08:44:17;98252.53;;;11.11;88.92
40502;BME280;29631;49.168;9.848;2023-02-04T08:46:43;98285.50;;;11.23;88.95
40502;BME280;29631;49.168;9.848;2023-02-04T08:49:09;98269.00;;;11.21;88.77
40502;BME280;29631;49.168;9.848;2023-02-04T08:51:34;98288.47;;;11.28;87.62
40502;BME280;29631;49.168;9.848;2023-02-04T08:54:00;98270.31;;;11.17;88.73
40502;BME280;29631;49.168;9.848;2023-02-04T08:56:26;98280.84;;;11.25;87.94
40502;BME280;29631;49.168;9.848;2023-02-04T08:58:52;98280.56;;;11.20;87.94
40502;BME280;29631;49.168;9.848;2023-02-04T09:01:18;98263.75;;;11.13;88.62
40502;BME280;29631;49.168;9.848;2023-02-04T09:03:44;98228.16;;;10.85;88.00
40502;BME280;29631;49.168;9.848;2023-02-04T09:06:10;98292.72;;;11.37;88.74
40502;BME280;29631;49.168;9.848;2023-02-04T09:08:36;98308.41;;;11.38;88.18
40502;BME280;29631;49.168;9.848;2023-02-04T09:11:03;98296.84;;;11.39;88.55
40502;BME280;29631;49.168;9.848;2023-02-04T09:13:30;98304.25;;;11.44;88.95
40502;BME280;29631;49.168;9.848;2023-02-04T09:15:57;98321.56;;;11.54;89.38
40502;BME280;29631;49.168;9.848;2023-02-04T09:18:22;98322.06;;;11.57;87.97
40502;BME280;29631;49.168;9.848;2023-02-04T09:20:51;98312.19;;;11.52;88.90
40502;BME280;29631;49.168;9.848;2023-02-04T09:23:17;98317.28;;;11.53;88.38
40502;BME280;29631;49.168;9.848;2023-02-04T09:25:44;98312.47;;;11.57;88.52
40502;BME280;29631;49.168;9.848;2023-02-04T09:28:11;98320.41;;;11.57;88.78
40502;BME280;29631;49.168;9.848;2023-02-04T09:30:39;98320.75;;;11.54;88.10
40502;BME280;29631;49.168;9.848;2023-02-04T09:33:05;98328.34;;;11.57;88.37
40502;BME280;29631;49.168;9.848;2023-02-04T09:35:32;98308.84;;;11.50;88.49
40502;BME280;29631;49.168;9.848;2023-02-04T09:37:57;98324.88;;;11.56;88.88
40502;BME280;29631;49.168;9.848;2023-02-04T09:40:25;98336.25;;;11.64;88.07
40502;BME280;29631;49.168;9.848;2023-02-04T09:42:52;98341.19;;;11.67;88.34
40502;BME280;29631;49.168;9.848;2023-02-04T09:45:32;98333.97;;;11.61;88.57
40502;BME280;29631;49.168;9.848;2023-02-04T09:48:00;98335.56;;;11.70;89.04
40502;BME280;29631;49.168;9.848;2023-02-04T09:50:28;98358.66;;;11.76;89.04
40502;BME280;29631;49.168;9.848;2023-02-04T09:52:59;98357.47;;;11.79;88.58
40502;BME280;29631;49.168;9.848;2023-02-04T09:55:34;98367.91;;;11.80;88.47
40502;BME280;29631;49.168;9.848;2023-02-04T09:58:13;98361.28;;;11.84;89.16
40502;BME280;29631;49.168;9.848;2023-02-04T10:00:46;98351.03;;;11.81;88.18
40502;BME280;29631;49.168;9.848;2023-02-04T10:03:18;98354.69;;;11.80;88.72
40502;BME280;29631;49.168;9.848;2023-02-04T10:05:46;98357.97;;;11.82;88.30
40502;BME280;29631;49.168;9.848;2023-02-04T10:08:19;98362.63;;;11.80;88.17
40502;BME280;29631;49.168;9.848;2023-02-04T10:10:47;98358.16;;;11.81;87.98
40502;BME280;29631;49.168;9.848;2023-02-04T10:13:21;98368.53;;;11.82;88.21
40502;BME280;29631;49.168;9.848;2023-02-04T10:15:49;98364.25;;;11.81;88.32
40502;BME280;29631;49.168;9.848;2023-02-04T10:18:29;98375.47;;;11.83;88.45
40502;BME280;29631;49.168;9.848;2023-02-04T10:23:31;98330.16;;;11.64;88.37
40502;BME280;29631;49.168;9.848;2023-02-04T10:25:57;98357.97;;;11.82;88.85
40502;BME280;29631;49.168;9.848;2023-02-04T10:28:35;98357.97;;;11.82;87.55
40502;BME280;29631;49.168;9.848;2023-02-04T10:31:02;98365.38;;;11.87;89.05
40502;BME280;29631;49.168;9.848;2023-02-04T10:33:27;98380.38;;;11.94;87.81
40502;BME280;29631;49.168;9.848;2023-02-04T10:35:55;98386.03;;;11.91;88.64
40502;BME280;29631;49.168;9.848;2023-02-04T10:38:22;98362.94;;;11.85;88.12
40502;BME280;29631;49.168;9.848;2023-02-04T10:40:59;98365.38;;;11.87;88.04
40502;BME280;29631;49.168;9.848;2023-02-04T10:43:25;98381.72;;;11.90;88.17
40502;BME280;29631;49.168;9.848;2023-02-04T10:46:02;98349.41;;;11.80;88.58
40502;BME280;29631;49.168;9.848;2023-02-04T10:48:29;98349.72;;;11.85;88.36
40502;BME280;29631;49.168;9.848;2023-02-04T10:50:57;98343.44;;;11.86;88.32
40502;BME280;29631;49.168;9.848;2023-02-04T10:53:24;98336.84;;;11.82;88.67
40502;BME280;29631;49.168;9.848;2023-02-04T10:56:17;98353.03;;;11.87;87.89
40502;BME280;29631;49.168;9.848;2023-02-04T10:58:43;98369.47;;;11.97;88.17
40502;BME280;29631;49.168;9.848;2023-02-04T11:01:11;98360.88;;;11.95;87.84
40502;BME280;29631;49.168;9.848;2023-02-04T11:03:39;98373.78;;;11.98;87.89
40502;BME280;29631;49.168;9.848;2023-02-04T11:06:21;98380.34;;;12.02;88.37
40502;BME280;29631;49.168;9.848;2023-02-04T11:08:48;98369.47;;;11.97;87.87
40502;BME280;29631;49.168;9.848;2023-02-04T11:11:26;98369.00;;;11.94;87.41
40502;BME280;29631;49.168;9.848;2023-02-04T11:19:04;98377.38;;;12.05;87.51
40502;BME280;29631;49.168;9.848;2023-02-04T11:24:23;98364.88;;;11.99;87.73
40502;BME280;29631;49.168;9.848;2023-02-04T11:26:52;98362.53;;;12.04;88.12
40502;BME280;29631;49.168;9.848;2023-02-04T11:29:35;98363.81;;;12.08;87.29
40502;BME280;29631;49.168;9.848;2023-02-04T11:32:34;98377.38;;;12.13;88.00
40502;BME280;29631;49.168;9.848;2023-02-04T11:35:24;98374.06;;;12.11;87.47
40502;BME280;29631;49.168;9.848;2023-02-04T11:37:50;98353.44;;;11.99;87.64
40502;BME280;29631;49.168;9.848;2023-02-04T11:40:34;98369.06;;;12.16;87.63
40502;BME280;29631;49.168;9.848;2023-02-04T11:43:07;98363.47;;;12.11;87.02
40502;BME280;29631;49.168;9.848;2023-02-04T11:45:35;98363.47;;;12.11;87.30
40502;BME280;29631;49.168;9.848;2023-02-04T11:48:12;98375.34;;;12.15;87.10
40502;BME280;29631;49.168;9.848;2023-02-04T11:50:39;98358.53;;;12.08;87.07
40502;BME280;29631;49.168;9.848;2023-02-04T11:53:10;98362.16;;;12.07;87.20
40502;BME280;29631;49.168;9.848;2023-02-04T11:55:44;98378.84;;;12.16;87.80
40502;BME280;29631;49.168;9.848;2023-02-04T11:58:16;98370.06;;;12.15;86.96
40502;BME280;29631;49.168;9.848;2023-02-04T12:00:43;98382.91;;;12.26;87.83
40502;BME280;29631;49.168;9.848;2023-02-04T12:03:31;98384.22;;;12.30;88.18
40502;BME280;29631;49.168;9.848;2023-02-04T12:05:59;98383.56;;;12.28;86.88
40502;BME280;29631;49.168;9.848;2023-02-04T12:08:31;98387.50;;;12.32;87.81
40502;BME280;29631;49.168;9.848;2023-02-04T12:13:24;98387.84;;;12.29;87.46
40502;BME280;29631;49.168;9.848;2023-02-04T12:16:02;98388.22;;;12.26;87.35
40502;BME280;29631;49.168;9.848;2023-02-04T12:18:29;98391.00;;;12.25;87.05
40502;BME280;29631;49.168;9.848;2023-02-04T12:20:56;98391.38;;;12.22;87.48
40502;BME280;29631;49.168;9.848;2023-02-04T12:23:24;98394.16;;;12.20;86.79
40502;BME280;29631;49.168;9.848;2023-02-04T12:25:50;98388.25;;;12.18;86.48
40502;BME280;29631;49.168;9.848;2023-02-04T12:28:16;98380.63;;;12.15;86.42
40502;BME280;29631;49.168;9.848;2023-02-04T12:30:42;98391.22;;;12.15;87.05
40502;BME280;29631;49.168;9.848;2023-02-04T12:33:08;98383.66;;;12.04;86.55
40502;BME280;29631;49.168;9.848;2023-02-04T12:35:34;98405.28;;;12.16;87.22
40502;BME280;29631;49.168;9.848;2023-02-04T12:38:00;98391.56;;;12.12;87.33
40502;BME280;29631;49.168;9.848;2023-02-04T12:40:27;98377.72;;;12.02;86.31
40502;BME280;29631;49.168;9.848;2023-02-04T12:42:52;98399.81;;;12.09;87.14
40502;BME280;29631;49.168;9.848;2023-02-04T12:45:18;98382.69;;;11.97;86.83
40502;BME280;29631;49.168;9.848;2023-02-04T12:47:44;98395.72;;;12.07;86.50
40502;BME280;29631;49.168;9.848;2023-02-04T12:50:16;98396.22;;;12.02;86.46
40502;BME280;29631;49.168;9.848;2023-02-04T12:52:57;98397.19;;;12.09;86.55
40502;BME280;29631;49.168;9.848;2023-02-04T12:55:26;98387.97;;;12.05;86.44
40502;BME280;29631;49.168;9.848;2023-02-04T12:57:53;98387.97;;;12.05;86.75
40502;BME280;29631;49.168;9.848;2023-02-04T13:00:19;98394.91;;;12.06;87.07
40502;BME280;29631;49.168;9.848;2023-02-04T13:02:46;98400.50;;;12.11;86.54
40502;BME280;29631;49.168;9.848;2023-02-04T13:05:12;98392.94;;;12.00;86.94
40502;BME280;29631;49.168;9.848;2023-02-04T13:07:39;98415.19;;;12.14;87.19
40502;BME280;29631;49.168;9.848;2023-02-04T13:10:09;98408.25;;;12.13;86.65
40502;BME280;29631;49.168;9.848;2023-02-04T13:12:35;98397.19;;;12.09;86.88
40502;BME280;29631;49.168;9.848;2023-02-04T13:15:01;98395.53;;;12.08;86.58